Portada
METAR-TAF:

METAR-TAF

Aeropuertos :

Aeropuerto Internacional Eleftherios Venizelos

Atenas, Grecia

latitud: 37-56N, longitud: 023-56E, altitud: 94 m

Observación

El informe se hizo hace 20 minutos, a las 18:20 UTC
Viento 2 kt con dirección variable
Temperatura 6°C
Humedad 49%
Presión 1020 hPa
Visibilidad 10 km o más
sin nubes por debajo de 1500 m y sin presencia de cumulonimbus.

METAR: LGAV 161820Z VRB02KT CAVOK 06/M04 Q1020 NOSIG

Hora: 20:40 (18:40 UTC)

Pronóstico

El informe se hizo hace 1 hora y 40 minutos, a las 17:00 UTC
Pronóstico válido del 16 a las 18 UTC al 17 a las 18 UTC
Viento 10 kt del oeste
Visibilidad 10 km o más
Escasas nubes a una altura de 2500 ft
Evolucionando progresivamente
del 17 a las 00 UTC al 17 a las 02 UTC
Viento 3 kt con dirección variable
Evolucionando progresivamente
del 17 a las 10 UTC al 17 a las 12 UTC
Viento 8 kt del suroeste

TAF: LGAV 161700Z 1618/1718 27010KT 9999 FEW025 BECMG 1700/1702 VRB03KT BECMG 1710/1712 23008KT

Observaciones y pronósticos meteorológicos de más de 4000 aeropuertos (mensajes METAR y TAF).

Los puntos amarillos y rojos representan las estaciones disponibles.

Ponga el ratón en el punto deseado para ver el nombre de la estación.

Haga clic para ver las observaciones y los pronósticos meteorológicos.

Para cambiar el mapa : haga clic en los botones verdes con una cruz de color negro para hacer un zoom, en el botón verde con un guión para alejar o en las flechas verdes para mapas adyacentes.


METAR-TAF: